Time;durP1;ratioP1;P1;durP2;ratioP2;P2;SDS_P1;SDS_P2;PMS_P1;PMS_P2;Temp;Humidity;BMP_temperature;BMP_pressure;BME280_temperature;BME280_humidity;BME280_pressure;Samples;Min_cycle;Max_cycle;Signal;HPM_P1;HPM_P2
2022/08/27 00:02:09;;;;;;;16.80;5.03;;;;;;;25.58;46.61;100467.41;5059480;28;20413;-60
2022/08/27 00:06:20;;;;;;;11.55;4.95;;;;;;;25.57;46.60;100457.66;5069870;28;20874;-60
2022/08/27 00:08:46;;;;;;;13.20;4.88;;;;;;;25.58;46.69;100461.16;5066225;28;20399;-60
2022/08/27 00:12:45;;;;;;;11.23;5.10;;;;;;;25.56;46.52;100466.88;5072119;28;20412;-59
2022/08/27 00:15:11;;;;;;;9.50;4.40;;;;;;;25.58;46.71;100472.03;5054296;28;20416;-58
2022/08/27 00:17:38;;;;;;;14.60;4.72;;;;;;;25.56;46.67;100464.94;5058633;28;20397;-60
2022/08/27 00:20:05;;;;;;;12.35;4.95;;;;;;;25.56;46.85;100467.66;5050039;28;20418;-59
2022/08/27 00:22:31;;;;;;;16.00;4.80;;;;;;;25.55;46.75;100462.50;5051721;28;20388;-60
2022/08/27 00:24:57;;;;;;;9.93;4.43;;;;;;;25.55;46.89;100466.06;5047239;28;20398;-60
2022/08/27 00:27:22;;;;;;;17.10;4.88;;;;;;;25.56;46.96;100470.38;5047951;28;20404;-60
2022/08/27 00:29:48;;;;;;;13.37;5.00;;;;;;;25.54;46.77;100474.47;5053109;28;20398;-60
2022/08/27 00:34:43;;;;;;;11.30;4.40;;;;;;;25.55;46.73;100476.09;5073989;27;2105107;-59
2022/08/27 00:37:09;;;;;;;14.90;5.20;;;;;;;25.52;46.95;100473.94;5127581;27;20410;-59
2022/08/27 00:39:35;;;;;;;10.85;5.25;;;;;;;25.50;46.99;100476.13;5127070;27;20394;-62
2022/08/27 00:44:27;;;;;;;13.70;5.07;;;;;;;25.50;46.96;100479.63;5121257;27;20461;-60
2022/08/27 00:47:00;;;;;;;11.40;5.00;;;;;;;25.46;47.05;100486.72;5124020;28;20480;-59
2022/08/27 00:49:28;;;;;;;12.73;4.80;;;;;;;25.34;47.14;100488.91;5121628;28;20407;-60
2022/08/27 00:52:15;;;;;;;11.55;4.50;;;;;;;25.26;47.52;100501.09;5125943;28;20395;-59
2022/08/27 00:54:41;;;;;;;14.77;5.28;;;;;;;25.26;48.18;100492.16;5111924;28;20494;-60
2022/08/27 00:57:06;;;;;;;12.35;5.10;;;;;;;25.27;48.68;100482.94;5119811;28;20442;-59
2022/08/27 00:59:32;;;;;;;15.00;5.37;;;;;;;25.30;48.42;100488.66;5121653;28;20803;-59
2022/08/27 01:02:17;;;;;;;13.53;5.17;;;;;;;25.30;48.31;100490.53;5120079;28;20437;-60
2022/08/27 01:04:59;;;;;;;15.13;5.00;;;;;;;25.20;48.64;100485.91;5120459;28;20505;-60
2022/08/27 01:07:28;;;;;;;12.55;5.30;;;;;;;25.24;49.04;100484.28;5117904;28;20897;-60
2022/08/27 01:09:56;;;;;;;11.02;4.90;;;;;;;25.30;48.72;100491.34;5121512;28;20395;-61
2022/08/27 01:12:22;;;;;;;12.50;5.20;;;;;;;25.33;48.75;100504.34;5119636;28;20386;-60
2022/08/27 01:14:48;;;;;;;13.82;4.82;;;;;;;25.27;48.97;100502.75;5116793;28;20383;-60
2022/08/27 01:17:14;;;;;;;10.87;5.17;;;;;;;25.12;49.79;100500.84;5110599;28;20399;-58
2022/08/27 01:19:51;;;;;;;10.02;4.95;;;;;;;25.17;50.08;100500.00;5120971;28;20384;-60
2022/08/27 01:22:33;;;;;;;11.82;5.32;;;;;;;25.14;50.07;100511.41;5116944;28;20385;-60
2022/08/27 01:26:35;;;;;;;12.95;5.10;;;;;;;24.68;50.90;100509.50;5096733;27;20406;-59
2022/08/27 01:29:01;;;;;;;13.77;5.35;;;;;;;24.83;51.30;100514.13;5086495;28;20462;-60
2022/08/27 01:31:28;;;;;;;14.43;5.55;;;;;;;24.83;51.21;100529.56;5086627;28;20955;-59
2022/08/27 01:34:04;;;;;;;14.75;5.47;;;;;;;24.60;51.42;100518.16;5086023;28;20400;-61
2022/08/27 01:36:31;;;;;;;17.73;5.73;;;;;;;24.67;51.68;100515.19;5086538;28;20444;-60
2022/08/27 01:38:57;;;;;;;12.70;5.18;;;;;;;24.69;51.61;100521.16;5085897;28;20397;-60
2022/08/27 01:41:23;;;;;;;12.32;5.35;;;;;;;24.70;51.85;100529.00;5086316;28;20461;-60
2022/08/27 01:43:49;;;;;;;11.45;4.85;;;;;;;24.75;52.12;100523.59;5084401;28;20386;-62
2022/08/27 01:46:19;;;;;;;15.10;5.32;;;;;;;24.78;51.95;100516.84;5085686;28;20935;-60
2022/08/27 01:48:45;;;;;;;14.10;5.70;;;;;;;24.73;51.97;100520.34;5085882;28;20490;-59
2022/08/27 01:51:11;;;;;;;15.23;6.10;;;;;;;24.73;52.13;100520.34;5085251;28;20417;-60
2022/08/27 01:53:36;;;;;;;15.38;6.15;;;;;;;24.74;52.30;100524.69;5085807;28;20887;-60
2022/08/27 01:56:03;;;;;;;12.67;6.07;;;;;;;24.72;52.22;100528.75;5085270;28;20391;-60
2022/08/27 01:58:30;;;;;;;14.43;6.03;;;;;;;24.76;52.20;100535.28;5066820;28;20393;-62
2022/08/27 02:01:05;;;;;;;16.13;5.88;;;;;;;24.72;51.98;100531.44;5083248;28;20411;-59
2022/08/27 02:03:35;;;;;;;13.40;5.70;;;;;;;24.70;51.75;100530.91;5085416;28;20405;-60
2022/08/27 02:06:08;;;;;;;19.40;5.63;;;;;;;24.70;51.51;100526.28;5085104;28;20422;-60
2022/08/27 02:08:33;;;;;;;13.02;5.38;;;;;;;24.65;51.41;100515.47;5085370;28;20397;-60
2022/08/27 02:11:00;;;;;;;12.90;5.27;;;;;;;24.66;51.46;100524.41;5085572;28;20390;-60
2022/08/27 02:13:26;;;;;;;14.00;5.05;;;;;;;24.59;51.06;100517.34;5085663;28;20479;-60
2022/08/27 02:15:52;;;;;;;12.97;5.03;;;;;;;24.55;50.98;100513.53;5085207;28;20401;-59
2022/08/27 02:18:17;;;;;;;15.90;5.47;;;;;;;24.54;50.82;100522.78;5085386;28;20390;-60
2022/08/27 02:20:45;;;;;;;11.18;5.15;;;;;;;24.49;50.91;100522.72;5085129;28;20491;-59
2022/08/27 02:23:11;;;;;;;15.48;5.10;;;;;;;24.46;50.97;100530.56;5085119;28;20386;-59
2022/08/27 02:25:37;;;;;;;10.27;4.60;;;;;;;24.42;50.89;100522.97;5085363;28;20421;-60
2022/08/27 02:28:05;;;;;;;14.13;4.80;;;;;;;24.39;50.98;100519.97;5085045;28;20495;-59
2022/08/27 02:30:32;;;;;;;13.93;4.78;;;;;;;24.33;51.03;100521.06;5084383;28;20392;-60
2022/08/27 02:32:59;;;;;;;11.10;5.10;;;;;;;24.32;50.86;100524.84;5084891;28;20386;-59
2022/08/27 02:35:26;;;;;;;9.18;4.90;;;;;;;24.24;50.80;100526.19;5085099;28;21084;-59
2022/08/27 02:37:52;;;;;;;9.33;4.60;;;;;;;24.16;50.77;100522.06;5072429;28;20391;-59
2022/08/27 02:40:20;;;;;;;14.70;4.88;;;;;;;24.13;50.59;100530.75;5070543;28;20418;-60
2022/08/27 02:42:46;;;;;;;12.68;5.07;;;;;;;24.11;50.69;100526.66;5071482;28;20430;-59
2022/08/27 02:45:14;;;;;;;10.70;4.70;;;;;;;24.05;50.56;100526.63;5071891;28;20480;-60
2022/08/27 02:47:39;;;;;;;10.77;4.75;;;;;;;23.97;50.49;100516.31;5071221;28;20390;-60
2022/08/27 02:50:06;;;;;;;12.02;4.78;;;;;;;23.94;50.57;100524.97;5071148;28;20391;-59
2022/08/27 02:52:49;;;;;;;9.57;5.00;;;;;;;23.85;50.63;100530.06;5049004;28;20467;-60
2022/08/27 02:55:15;;;;;;;16.03;5.80;;;;;;;23.82;50.66;100518.94;5045977;28;20409;-61
2022/08/27 02:57:41;;;;;;;15.98;5.45;;;;;;;23.79;50.50;100520.25;5045989;28;20463;-59
2022/08/27 03:00:11;;;;;;;9.60;5.57;;;;;;;23.83;50.50;100531.41;5046203;28;20386;-60
2022/08/27 03:02:37;;;;;;;14.00;5.60;;;;;;;23.80;50.61;100527.31;5043266;28;20394;-62
2022/08/27 03:05:04;;;;;;;13.45;6.15;;;;;;;23.80;50.41;100526.50;5046682;28;20405;-60
2022/08/27 03:07:30;;;;;;;10.18;5.50;;;;;;;23.81;50.51;100526.25;5045875;28;20405;-60
2022/08/27 03:09:55;;;;;;;10.83;5.63;;;;;;;23.83;50.39;100518.69;5043521;28;20780;-58
2022/08/27 03:12:21;;;;;;;12.93;5.33;;;;;;;23.78;50.87;100523.22;5045410;28;20425;-60
2022/08/27 03:15:46;;;;;;;11.88;5.80;;;;;;;23.81;50.84;100531.66;5070074;27;20408;-60
2022/08/27 03:18:18;;;;;;;19.73;5.70;;;;;;;23.80;50.74;100527.31;5051352;28;20459;-61
2022/08/27 03:20:51;;;;;;;10.85;5.45;;;;;;;23.81;50.95;100536.28;5047651;28;20405;-60
2022/08/27 03:23:21;;;;;;;12.65;5.43;;;;;;;23.81;50.94;100533.56;5039999;28;20937;-60
2022/08/27 03:25:58;;;;;;;12.33;5.10;;;;;;;23.75;51.00;100531.88;5050976;28;20398;-60
2022/08/27 03:28:27;;;;;;;11.10;5.35;;;;;;;23.71;51.48;100539.69;5056742;28;20396;-60
2022/08/27 03:30:58;;;;;;;12.53;5.33;;;;;;;23.70;51.57;100537.25;5049165;28;20468;-59
2022/08/27 03:33:25;;;;;;;11.10;5.20;;;;;;;23.65;51.72;100533.44;5046032;28;20768;-60
2022/08/27 03:35:51;;;;;;;10.35;5.20;;;;;;;23.67;51.97;100535.88;5047076;28;21152;-60
2022/08/27 03:38:16;;;;;;;10.60;5.45;;;;;;;23.65;52.15;100538.03;5047354;28;20381;-59
2022/08/27 03:40:43;;;;;;;12.87;5.60;;;;;;;23.68;52.08;100542.94;5046320;28;20480;-59
2022/08/27 03:43:11;;;;;;;13.27;5.82;;;;;;;23.69;52.02;100549.16;5051119;28;20485;-60
2022/08/27 03:45:37;;;;;;;14.63;6.50;;;;;;;23.65;52.17;100554.28;5042018;28;20923;-60
2022/08/27 03:48:04;;;;;;;14.70;6.50;;;;;;;23.66;52.37;100554.03;5047524;28;20480;-59
2022/08/27 03:50:31;;;;;;;15.93;6.55;;;;;;;23.59;52.71;100549.94;5046464;28;20382;-60
2022/08/27 03:52:57;;;;;;;11.85;6.40;;;;;;;23.59;52.90;100548.03;5044339;28;20913;-59
2022/08/27 03:55:23;;;;;;;12.52;6.22;;;;;;;23.62;52.66;100552.94;5049379;28;20503;-59
2022/08/27 03:57:49;;;;;;;15.13;6.47;;;;;;;23.66;52.36;100551.31;5047915;28;20397;-60
2022/08/27 04:00:15;;;;;;;14.98;6.10;;;;;;;23.66;52.36;100550.50;5047975;28;20410;-59
2022/08/27 04:02:41;;;;;;;12.60;6.20;;;;;;;23.72;52.54;100556.78;5037909;28;20465;-59
2022/08/27 04:05:10;;;;;;;12.45;6.00;;;;;;;23.77;52.25;100557.59;5043753;28;20497;-58
2022/08/27 04:07:37;;;;;;;12.73;6.05;;;;;;;23.84;52.20;100562.81;5040264;28;20926;-59
2022/08/27 04:10:04;;;;;;;13.10;6.13;;;;;;;23.93;52.33;100561.25;5044647;28;20843;-59
2022/08/27 04:12:30;;;;;;;12.57;6.25;;;;;;;24.09;52.29;100564.00;5040074;28;20399;-59
2022/08/27 04:14:55;;;;;;;13.88;6.07;;;;;;;24.22;51.85;100566.25;5043010;28;20526;-59
2022/08/27 04:17:21;;;;;;;13.17;6.37;;;;;;;24.38;51.75;100559.81;5045442;28;20390;-60
2022/08/27 04:19:46;;;;;;;18.83;7.27;;;;;;;24.50;51.42;100559.56;5045619;28;20892;-59
2022/08/27 04:22:11;;;;;;;14.38;6.63;;;;;;;24.64;51.47;100572.66;5048330;28;20397;-59
2022/08/27 04:24:37;;;;;;;17.13;6.97;;;;;;;24.87;50.76;100574.06;5045706;28;20488;-59
2022/08/27 04:27:04;;;;;;;13.27;6.47;;;;;;;25.07;50.26;100568.66;5033408;28;20390;-59
2022/08/27 04:29:30;;;;;;;16.30;6.80;;;;;;;25.31;49.67;100568.13;5036550;28;20398;-59
2022/08/27 04:31:56;;;;;;;14.35;6.43;;;;;;;25.54;49.20;100572.19;5035021;28;20923;-60
2022/08/27 04:34:22;;;;;;;16.50;6.57;;;;;;;25.77;48.47;100573.50;5034550;28;20914;-60
2022/08/27 04:36:49;;;;;;;13.27;6.65;;;;;;;26.04;47.95;100585.97;5044915;28;20401;-59
2022/08/27 04:39:15;;;;;;;22.37;6.80;;;;;;;26.32;47.02;100584.47;5033281;28;20390;-61
2022/08/27 04:41:41;;;;;;;14.43;5.90;;;;;;;26.57;46.15;100583.53;5034915;28;20746;-60
2022/08/27 04:44:08;;;;;;;13.98;6.32;;;;;;;26.86;45.74;100593.72;5033656;28;20489;-60
2022/08/27 04:46:39;;;;;;;17.93;5.80;;;;;;;27.15;44.97;100598.41;5031763;28;20898;-59
2022/08/27 04:49:08;;;;;;;14.25;5.65;;;;;;;27.43;44.21;100605.84;5033404;28;20394;-59
2022/08/27 04:51:35;;;;;;;15.05;5.43;;;;;;;27.72;43.10;100590.59;5034664;28;20484;-60
2022/08/27 04:54:02;;;;;;;11.37;5.37;;;;;;;28.01;42.42;100596.03;5040158;28;20908;-60
2022/08/27 04:56:29;;;;;;;14.13;5.30;;;;;;;28.33;41.67;100592.66;5046690;28;20505;-59
2022/08/27 04:58:55;;;;;;;11.57;5.22;;;;;;;28.61;41.00;100595.56;5037317;28;20396;-61
2022/08/27 05:01:23;;;;;;;17.17;5.65;;;;;;;28.94;40.41;100595.66;5035695;28;20750;-60
2022/08/27 05:03:49;;;;;;;11.23;5.68;;;;;;;29.22;39.95;100588.41;5044435;28;20396;-60
2022/08/27 05:06:17;;;;;;;14.88;6.75;;;;;;;29.53;39.25;100596.88;5037388;28;20785;-59
2022/08/27 05:08:42;;;;;;;18.67;6.57;;;;;;;29.81;38.69;100587.94;5034447;28;20491;-60
2022/08/27 05:11:12;;;;;;;13.82;6.97;;;;;;;29.96;38.39;100592.28;5030321;28;20390;-59
2022/08/27 05:13:38;;;;;;;16.15;7.68;;;;;;;30.24;37.60;100595.84;5030690;28;20903;-59
2022/08/27 05:16:08;;;;;;;18.63;8.00;;;;;;;30.58;37.31;100589.94;5045748;28;20857;-59
2022/08/27 05:18:35;;;;;;;15.88;6.32;;;;;;;30.88;37.07;100595.78;5025324;28;20762;-63
2022/08/27 05:21:01;;;;;;;17.15;6.18;;;;;;;32.00;35.20;100592.16;5024519;28;20394;-64
2022/08/27 05:23:26;;;;;;;15.45;5.95;;;;;;;34.16;31.89;100592.59;5027302;28;20772;-66
2022/08/27 05:25:53;;;;;;;11.93;5.47;;;;;;;35.99;29.25;100588.97;5028249;28;20517;-60
2022/08/27 05:28:20;;;;;;;15.50;5.80;;;;;;;37.30;27.59;100584.13;5028961;28;20393;-61
2022/08/27 05:30:48;;;;;;;12.77;5.40;;;;;;;38.30;25.97;100584.94;5027806;28;20436;-59
2022/08/27 05:33:17;;;;;;;11.93;5.55;;;;;;;39.22;24.72;100578.09;5025756;28;20477;-60
2022/08/27 05:35:57;;;;;;;12.95;5.38;;;;;;;40.14;23.56;100578.84;5027048;28;20419;-62
2022/08/27 05:38:23;;;;;;;14.25;5.30;;;;;;;40.81;22.81;100582.09;5025640;28;20391;-62
2022/08/27 05:40:50;;;;;;;11.13;5.20;;;;;;;41.61;21.52;100582.47;5022496;28;20436;-62
2022/08/27 05:43:17;;;;;;;11.87;5.10;;;;;;;42.31;20.84;100578.97;5020807;28;20485;-62
2022/08/27 05:45:45;;;;;;;9.93;4.93;;;;;;;43.23;19.89;100576.88;5029415;28;20493;-61
2022/08/27 05:48:14;;;;;;;16.00;5.30;;;;;;;43.78;19.17;100581.28;5028653;28;20401;-62
2022/08/27 05:50:42;;;;;;;13.97;5.17;;;;;;;44.45;18.38;100583.09;5027027;28;20395;-60
2022/08/27 05:53:08;;;;;;;13.85;5.38;;;;;;;44.93;18.03;100578.09;5028767;28;20759;-60
2022/08/27 05:55:39;;;;;;;12.33;5.27;;;;;;;45.55;17.66;100582.03;5029274;28;20422;-60
2022/08/27 05:58:06;;;;;;;11.48;5.45;;;;;;;45.88;17.27;100585.31;5027468;28;20883;-59
2022/08/27 06:03:19;;;;;;;15.73;5.47;;;;;;;46.45;16.58;100579.06;5029047;28;20773;-61
2022/08/27 06:05:45;;;;;;;12.37;5.60;;;;;;;46.75;16.40;100574.69;5029120;28;20394;-65
2022/08/27 06:08:11;;;;;;;16.17;5.78;;;;;;;47.03;15.94;100584.69;5029784;28;20469;-60
2022/08/27 06:10:40;;;;;;;15.47;7.53;;;;;;;47.18;16.68;100576.84;5029017;28;20394;-59
2022/08/27 06:13:06;;;;;;;12.67;6.37;;;;;;;47.37;16.55;100575.34;5029422;28;20387;-59
2022/08/27 06:15:32;;;;;;;17.97;7.27;;;;;;;47.57;16.50;100580.22;5029589;28;20422;-59
2022/08/27 06:18:00;;;;;;;18.55;7.97;;;;;;;48.36;16.05;100578.72;5030454;28;20402;-59
2022/08/27 06:20:26;;;;;;;18.05;7.47;;;;;;;48.87;15.21;100586.84;5030134;28;20900;-59
2022/08/27 06:22:51;;;;;;;14.77;7.18;;;;;;;49.22;14.75;100581.59;5030198;28;20397;-59
2022/08/27 06:25:17;;;;;;;16.80;6.32;;;;;;;49.60;14.43;100583.88;5030034;28;20807;-59
2022/08/27 06:27:42;;;;;;;14.40;6.03;;;;;;;49.97;13.99;100584.47;5030407;28;20826;-59
2022/08/27 06:30:09;;;;;;;14.23;6.13;;;;;;;50.49;13.86;100577.72;5030240;28;20387;-59
2022/08/27 06:32:34;;;;;;;12.63;6.00;;;;;;;50.93;13.33;100574.34;5029987;28;20761;-58
2022/08/27 06:34:59;;;;;;;12.10;5.90;;;;;;;51.23;12.92;100559.66;5029843;28;20410;-59
2022/08/27 06:37:40;;;;;;;10.70;5.87;;;;;;;51.27;12.78;100567.19;5046904;28;20459;-59
2022/08/27 06:40:07;;;;;;;13.07;5.67;;;;;;;51.65;12.43;100572.75;5044757;28;20409;-60
2022/08/27 06:42:32;;;;;;;15.68;5.53;;;;;;;52.13;11.98;100569.78;5045447;28;20381;-59
2022/08/27 06:46:47;;;;;;;13.20;5.23;;;;;;;52.68;11.61;100578.56;5036917;28;20423;-59
2022/08/27 06:49:13;;;;;;;13.90;5.47;;;;;;;52.24;11.82;100575.81;5028489;28;20453;-58
2022/08/27 06:51:43;;;;;;;11.55;4.88;;;;;;;52.70;11.37;100564.72;5025521;28;20825;-59
2022/08/27 06:54:11;;;;;;;11.95;4.80;;;;;;;52.84;11.18;100574.69;5024954;28;20392;-58
2022/08/27 06:56:36;;;;;;;15.30;4.97;;;;;;;53.15;11.29;100564.53;5028391;28;20453;-59
2022/08/27 06:59:05;;;;;;;15.57;5.10;;;;;;;53.45;10.63;100563.63;5026644;28;20376;-58
2022/08/27 07:01:35;;;;;;;12.15;5.30;;;;;;;53.81;10.87;100566.91;5027907;28;20498;-58
2022/08/27 07:04:03;;;;;;;14.02;5.63;;;;;;;54.42;10.44;100564.91;5026156;28;20415;-58
2022/08/27 07:06:30;;;;;;;11.77;4.68;;;;;;;54.41;9.95;100566.16;5026347;28;20912;-59
2022/08/27 07:08:58;;;;;;;12.20;4.93;;;;;;;54.52;9.85;100565.63;5026186;28;20383;-59
2022/08/27 07:11:25;;;;;;;13.13;4.90;;;;;;;54.62;9.98;100555.84;5023171;28;20909;-59
2022/08/27 07:13:51;;;;;;;17.38;6.68;;;;;;;54.81;9.55;100561.41;5025715;28;20850;-60
2022/08/27 07:16:23;;;;;;;13.43;5.23;;;;;;;54.69;9.54;100554.69;5026512;28;20420;-60
2022/08/27 07:18:49;;;;;;;16.08;5.32;;;;;;;53.79;10.30;100552.44;5020345;28;20881;-59
2022/08/27 07:21:20;;;;;;;10.90;6.10;;;;;;;52.11;11.70;100558.91;5026529;28;20457;-59
2022/08/27 07:23:47;;;;;;;14.88;5.60;;;;;;;50.93;12.59;100551.78;5025816;28;20461;-60
2022/08/27 07:26:14;;;;;;;15.45;4.85;;;;;;;49.85;13.52;100563.47;5025610;28;20418;-60
2022/08/27 07:28:41;;;;;;;12.30;4.70;;;;;;;48.86;13.95;100557.09;5025849;28;20449;-59
2022/08/27 07:31:10;;;;;;;11.75;4.57;;;;;;;47.68;14.87;100573.19;5024439;28;20387;-60
2022/08/27 07:33:36;;;;;;;13.38;4.55;;;;;;;46.61;15.98;100564.44;5033514;28;20417;-60
2022/08/27 07:36:03;;;;;;;9.13;4.35;;;;;;;45.62;16.94;100567.97;5026224;28;20398;-59
2022/08/27 07:38:29;;;;;;;13.55;4.80;;;;;;;44.83;17.87;100562.94;5023983;28;20398;-60
2022/08/27 07:40:55;;;;;;;15.75;4.70;;;;;;;44.09;18.12;100569.22;5026111;28;20457;-59
2022/08/27 07:46:05;;;;;;;13.68;4.70;;;;;;;42.87;19.64;100569.22;5026180;28;20485;-60
2022/08/27 07:48:33;;;;;;;7.93;4.43;;;;;;;42.32;19.99;100567.44;5025773;28;20380;-61
2022/08/27 07:51:03;;;;;;;12.02;4.75;;;;;;;41.89;20.47;100572.75;5023796;28;20388;-60
2022/08/27 07:53:31;;;;;;;12.93;4.90;;;;;;;41.46;21.11;100576.00;5023853;28;20380;-58
2022/08/27 07:56:05;;;;;;;13.90;5.35;;;;;;;40.98;21.68;100575.91;5024493;28;20388;-60
2022/08/27 07:58:31;;;;;;;14.88;4.85;;;;;;;40.53;22.03;100577.78;5011860;28;20810;-60
2022/08/27 08:00:56;;;;;;;12.85;5.07;;;;;;;40.13;22.92;100574.44;5012159;28;20962;-60
2022/08/27 08:03:22;;;;;;;14.98;5.20;;;;;;;39.87;23.20;100575.25;5012187;28;20406;-59
2022/08/27 08:05:48;;;;;;;14.68;4.95;;;;;;;39.47;23.84;100576.59;5012421;28;20817;-60
2022/08/27 08:08:14;;;;;;;14.80;5.05;;;;;;;39.22;24.18;100581.69;5012740;28;20381;-59
2022/08/27 08:10:42;;;;;;;13.90;5.03;;;;;;;38.86;24.35;100577.41;5012600;28;20843;-62
2022/08/27 08:13:08;;;;;;;13.20;4.70;;;;;;;38.58;24.55;100590.34;5012227;28;20396;-59
2022/08/27 08:15:34;;;;;;;15.05;5.13;;;;;;;38.22;25.37;100586.78;5012589;28;20396;-59
2022/08/27 08:18:00;;;;;;;11.13;5.00;;;;;;;38.08;25.44;100583.66;5012471;28;20387;-58
2022/08/27 08:20:25;;;;;;;12.87;4.50;;;;;;;37.83;25.90;100575.59;5012128;28;20394;-60
2022/08/27 08:22:51;;;;;;;12.63;5.10;;;;;;;37.33;26.69;100577.09;5012427;28;20391;-60
2022/08/27 08:25:16;;;;;;;11.60;4.87;;;;;;;37.01;26.62;100579.78;5012396;28;20842;-59
2022/08/27 08:27:42;;;;;;;15.63;4.83;;;;;;;36.78;27.08;100587.03;5012124;28;20899;-59
2022/08/27 08:30:10;;;;;;;11.63;4.72;;;;;;;36.80;26.83;100587.47;5012407;28;20387;-59
2022/08/27 08:32:36;;;;;;;14.70;4.55;;;;;;;36.65;27.07;100586.25;5012290;28;20454;-59
2022/08/27 08:35:03;;;;;;;10.35;4.47;;;;;;;36.49;27.70;100592.50;5011987;28;20404;-59
2022/08/27 08:37:28;;;;;;;11.05;4.22;;;;;;;36.41;27.29;100585.16;5011812;28;20471;-59
2022/08/27 08:39:54;;;;;;;13.27;4.80;;;;;;;36.39;27.37;100589.41;5012158;28;20479;-59
2022/08/27 08:42:44;;;;;;;9.87;4.00;;;;;;;36.20;27.47;100592.78;5011994;28;20379;-59
2022/08/27 08:45:15;;;;;;;17.55;6.00;;;;;;;36.07;27.94;100583.66;5011822;28;20432;-60
2022/08/27 08:47:43;;;;;;;12.15;4.35;;;;;;;36.01;28.23;100593.34;5011922;28;20443;-59
2022/08/27 08:50:35;;;;;;;14.25;5.47;;;;;;;35.91;28.54;100592.66;5011866;28;20399;-59
2022/08/27 08:53:03;;;;;;;14.77;5.18;;;;;;;35.78;28.10;100591.88;5011860;28;20882;-59
2022/08/27 08:55:50;;;;;;;11.73;4.60;;;;;;;35.78;28.69;100593.78;5011539;28;20471;-59
2022/08/27 08:58:33;;;;;;;13.40;4.38;;;;;;;35.70;28.16;100591.97;5011733;28;20970;-59
2022/08/27 09:01:02;;;;;;;15.70;4.90;;;;;;;35.58;28.89;100588.03;5011644;28;20989;-60
2022/08/27 09:03:28;;;;;;;12.40;4.30;;;;;;;35.52;28.84;100586.63;5011622;28;20874;-59
2022/08/27 09:06:23;;;;;;;9.73;4.10;;;;;;;35.56;28.88;100593.06;5011471;28;20482;-59
2022/08/27 09:08:48;;;;;;;9.77;4.53;;;;;;;35.21;29.24;100587.16;5010275;28;20391;-59
2022/08/27 09:11:29;;;;;;;9.60;4.50;;;;;;;35.25;29.26;100582.56;5011778;28;20388;-59
2022/08/27 09:13:58;;;;;;;10.55;4.50;;;;;;;35.27;29.36;100587.72;5011183;28;20430;-58
2022/08/27 09:16:24;;;;;;;14.75;5.13;;;;;;;35.23;29.45;100579.34;5011063;28;20462;-59
2022/08/27 09:18:50;;;;;;;10.30;4.20;;;;;;;35.26;29.59;100581.44;5011305;28;20399;-58
2022/08/27 09:21:40;;;;;;;16.15;4.60;;;;;;;35.25;29.50;100579.81;5011070;28;20384;-59
2022/08/27 09:24:36;;;;;;;12.17;4.50;;;;;;;35.19;29.05;100576.47;5010858;28;20416;-59
2022/08/27 09:27:02;;;;;;;16.02;4.88;;;;;;;34.96;29.47;100573.25;5011041;28;20957;-58
2022/08/27 09:29:29;;;;;;;10.63;4.20;;;;;;;34.94;29.65;100585.78;5011257;28;20912;-59
2022/08/27 09:31:57;;;;;;;16.92;4.68;;;;;;;34.88;29.09;100573.34;5010906;28;20388;-59
2022/08/27 09:34:26;;;;;;;11.13;4.20;;;;;;;34.57;29.31;100578.09;5010753;28;20960;-59
2022/08/27 09:37:00;;;;;;;16.98;4.20;;;;;;;34.46;29.18;100574.16;5011010;28;20394;-59
2022/08/27 09:39:47;;;;;;;10.17;4.30;;;;;;;34.37;29.09;100570.66;5011005;28;20885;-59
2022/08/27 09:42:28;;;;;;;14.38;4.10;;;;;;;34.21;29.17;100570.44;5010900;28;20813;-60
2022/08/27 09:44:54;;;;;;;13.23;4.30;;;;;;;34.35;29.37;100573.75;5010673;28;20424;-59
2022/08/27 09:47:20;;;;;;;11.93;4.38;;;;;;;34.51;29.81;100573.16;5010604;28;20471;-60
2022/08/27 09:49:46;;;;;;;10.23;4.82;;;;;;;34.55;29.68;100565.81;5010836;28;20479;-59
2022/08/27 09:52:47;;;;;;;10.17;4.83;;;;;;;34.59;29.81;100567.59;5010802;28;20380;-58
2022/08/27 09:55:44;;;;;;;12.15;4.82;;;;;;;34.72;29.46;100565.72;5010309;28;20744;-59
2022/08/27 09:58:24;;;;;;;12.23;4.55;;;;;;;34.82;29.23;100573.53;5010288;28;20460;-57
2022/08/27 10:01:05;;;;;;;12.50;4.40;;;;;;;34.80;29.19;100564.03;5010268;28;20380;-58
2022/08/27 10:03:31;;;;;;;13.88;4.50;;;;;;;34.75;29.25;100558.72;5010317;28;20395;-59
2022/08/27 10:05:57;;;;;;;11.07;4.45;;;;;;;34.73;29.27;100561.81;5010384;28;20420;-59
2022/08/27 10:08:34;;;;;;;13.33;4.80;;;;;;;34.63;29.47;100560.25;5009226;28;20442;-59
2022/08/27 10:11:08;;;;;;;10.32;4.53;;;;;;;34.69;29.51;100560.06;5010200;28;20388;-59
2022/08/27 10:13:49;;;;;;;12.80;4.45;;;;;;;34.60;29.29;100558.16;5010202;28;20479;-59
2022/08/27 10:16:51;;;;;;;10.35;4.10;;;;;;;34.58;28.50;100560.44;5010362;28;20387;-58
2022/08/27 10:19:28;;;;;;;12.35;4.40;;;;;;;34.56;28.29;100554.47;5010029;28;20530;-58
2022/08/27 10:22:06;;;;;;;12.77;4.47;;;;;;;34.49;29.04;100562.47;5010574;28;21014;-59
2022/08/27 10:24:47;;;;;;;7.78;4.13;;;;;;;34.52;28.42;100558.22;5009991;28;20498;-59
2022/08/27 10:27:38;;;;;;;11.00;4.13;;;;;;;34.44;29.12;100557.16;5010297;28;20380;-59
2022/08/27 10:30:13;;;;;;;9.90;4.20;;;;;;;34.36;29.59;100555.28;5001336;28;20483;-58
2022/08/27 10:32:38;;;;;;;13.15;4.22;;;;;;;34.24;29.23;100559.56;5009891;28;20390;-60
2022/08/27 10:35:15;;;;;;;13.32;4.50;;;;;;;34.22;29.41;100552.81;5009946;28;20384;-59
2022/08/27 10:37:55;;;;;;;14.63;4.18;;;;;;;34.23;29.32;100563.47;5010107;28;20403;-60
2022/08/27 10:40:40;;;;;;;13.52;4.25;;;;;;;34.19;28.85;100557.00;5009873;28;20384;-60
2022/08/27 10:43:11;;;;;;;12.93;4.20;;;;;;;34.17;28.37;100558.47;5010057;28;20775;-59
2022/08/27 10:45:46;;;;;;;11.47;4.00;;;;;;;34.14;28.53;100559.13;5009626;28;20431;-58
2022/08/27 10:48:32;;;;;;;12.15;4.03;;;;;;;34.19;28.72;100561.72;5009807;28;20391;-59
2022/08/27 10:51:30;;;;;;;15.95;4.45;;;;;;;34.18;28.71;100555.41;5009785;28;20438;-59
2022/08/27 10:54:04;;;;;;;11.38;3.67;;;;;;;34.20;28.18;100555.09;5009381;28;20414;-60
2022/08/27 10:56:39;;;;;;;15.73;4.30;;;;;;;34.07;28.16;100546.72;5009680;28;20462;-59
2022/08/27 10:59:13;;;;;;;13.73;3.73;;;;;;;33.94;27.41;100552.44;5009659;28;20396;-60
2022/08/27 11:01:46;;;;;;;13.90;3.30;;;;;;;33.82;26.47;100553.97;4991602;28;20378;-61
2022/08/27 11:04:25;;;;;;;13.30;4.90;;;;;;;33.75;26.04;100548.19;4989930;28;20484;-59
2022/08/27 11:06:59;;;;;;;12.73;3.30;;;;;;;33.83;26.17;100549.28;5029476;28;20414;-59
2022/08/27 11:09:49;;;;;;;9.20;3.25;;;;;;;33.85;24.54;100544.25;5029557;28;20382;-60
2022/08/27 11:12:21;;;;;;;11.27;3.38;;;;;;;33.87;23.46;100547.47;5029456;28;20394;-59
2022/08/27 11:15:01;;;;;;;7.60;3.15;;;;;;;33.89;23.49;100543.25;5029798;28;20379;-59
2022/08/27 11:17:59;;;;;;;8.30;2.93;;;;;;;33.93;22.64;100545.34;5029630;28;20383;-59
2022/08/27 11:20:30;;;;;;;11.27;3.10;;;;;;;33.93;23.26;100534.34;5028791;28;20394;-62
2022/08/27 11:23:08;;;;;;;10.82;3.13;;;;;;;34.01;24.12;100537.03;5029481;28;20477;-59
2022/08/27 11:25:57;;;;;;;10.43;3.33;;;;;;;34.12;25.03;100534.69;5029292;28;20840;-60
2022/08/27 11:28:38;;;;;;;11.57;3.40;;;;;;;34.18;24.83;100529.84;5029204;28;20470;-59
2022/08/27 11:31:20;;;;;;;10.25;2.33;;;;;;;34.16;23.07;100530.16;5029439;28;20386;-59
2022/08/27 11:34:04;;;;;;;10.37;2.57;;;;;;;34.20;22.40;100525.63;5032979;28;20912;-59
2022/08/27 11:36:54;;;;;;;10.15;3.08;;;;;;;34.07;22.11;100521.97;5032833;28;20411;-60
2022/08/27 11:39:55;;;;;;;10.50;3.05;;;;;;;34.12;23.30;100523.69;5032672;28;20825;-60
2022/08/27 11:45:09;;;;;;;7.53;3.22;;;;;;;34.11;24.62;100521.28;5066927;28;20400;-60
2022/08/27 11:47:36;;;;;;;7.30;3.20;;;;;;;34.17;25.15;100514.44;5066780;28;20786;-60
2022/08/27 11:50:07;;;;;;;11.50;3.25;;;;;;;34.20;24.35;100509.09;5067358;28;20902;-60
2022/08/27 11:52:52;;;;;;;7.88;2.83;;;;;;;34.26;24.27;100517.97;5066715;28;20409;-60